SPHY

Details ICAO SPHY (ANS)
Name ANDAHUAYLAS
Region Peru
Timezone America/Lima (UTC-5.0)
Plans Departing 1
Arriving 2
Stats Elevation 11,300 ft / 3,444 m (AMSL)
Location -13.706410° -73.350376°
Runways 1
Magnetic Variation 4.337° W
Sunrise 2017-12-13 10:21:24 UTC / 2017-12-13 05:21:24 Local
Sunset 2017-12-13 23:16:50 UTC / 2017-12-13 18:16:50 Local
Advertisement - Login to hide

Runways

ID Width Length Bearing (true) Bearing (mag) Surface Threshold Offset Overrun Length
03 98 ft / 30 m 8,397 ft / 2,560 m 31.64° 35.98° Asphalt 0 ft / 0 m 250 ft / 76 m
21 98 ft / 30 m 8,397 ft / 2,560 m 211.64° 215.98° Asphalt 0 ft / 0 m 200 ft / 61 m

Map

Weather


0- 5 10 15 20 25 30 35+ Temperature / ° C

Clouds and Precipitation
Forecast for 2017-12-14 00:00 UTC. Updated 2 hours ago

Ground ~20,000 ft ~40,000 ft Winds

METAR

Not found

TAF

SPHY 131720Z 1318/1418 01010KT 9999 FEW015 SCT060 TX18/1319Z TN03/1411Z BECMG 1323/1402 00000KT BECMG 1404/1407 SCT015 BKN080
Warning: Do not use this data for real-world aviation or navigation. No guarantee of current accuracy is given.